sensor_id;sensor_type;location;lat;lon;timestamp;temperature;humidity
45207;DHT22;30950;53.086;21.576;2022-10-16T00:01:30;14.50;99.90
45207;DHT22;30950;53.086;21.576;2022-10-16T00:03:59;14.50;99.90
45207;DHT22;30950;53.086;21.576;2022-10-16T00:06:27;14.50;99.90
45207;DHT22;30950;53.086;21.576;2022-10-16T00:08:55;14.50;99.90
45207;DHT22;30950;53.086;21.576;2022-10-16T00:11:24;14.50;99.90
45207;DHT22;30950;53.086;21.576;2022-10-16T00:13:56;14.60;99.90
45207;DHT22;30950;53.086;21.576;2022-10-16T00:16:24;14.60;99.90
45207;DHT22;30950;53.086;21.576;2022-10-16T00:18:51;14.60;99.90
45207;DHT22;30950;53.086;21.576;2022-10-16T00:21:22;14.60;99.90
45207;DHT22;30950;53.086;21.576;2022-10-16T00:23:55;14.60;99.90
45207;DHT22;30950;53.086;21.576;2022-10-16T00:26:23;14.60;99.90
45207;DHT22;30950;53.086;21.576;2022-10-16T00:28:51;14.60;99.90
45207;DHT22;30950;53.086;21.576;2022-10-16T00:31:20;14.60;99.90
45207;DHT22;30950;53.086;21.576;2022-10-16T00:33:49;14.60;99.90
45207;DHT22;30950;53.086;21.576;2022-10-16T00:36:19;14.60;99.90
45207;DHT22;30950;53.086;21.576;2022-10-16T00:38:50;14.60;99.90
45207;DHT22;30950;53.086;21.576;2022-10-16T00:41:20;14.60;99.90
45207;DHT22;30950;53.086;21.576;2022-10-16T00:43:57;14.60;99.90
45207;DHT22;30950;53.086;21.576;2022-10-16T00:46:38;14.60;99.90
45207;DHT22;30950;53.086;21.576;2022-10-16T00:49:15;14.60;99.90
45207;DHT22;30950;53.086;21.576;2022-10-16T00:51:46;14.60;99.90
45207;DHT22;30950;53.086;21.576;2022-10-16T00:54:21;14.60;99.90
45207;DHT22;30950;53.086;21.576;2022-10-16T00:56:49;14.60;99.90
45207;DHT22;30950;53.086;21.576;2022-10-16T00:59:28;14.60;99.90
45207;DHT22;30950;53.086;21.576;2022-10-16T01:01:57;14.60;99.90
45207;DHT22;30950;53.086;21.576;2022-10-16T01:04:26;14.60;99.90
45207;DHT22;30950;53.086;21.576;2022-10-16T01:07:16;14.50;99.90
45207;DHT22;30950;53.086;21.576;2022-10-16T01:10:06;14.60;99.90
45207;DHT22;30950;53.086;21.576;2022-10-16T01:15:42;14.50;99.90
45207;DHT22;30950;53.086;21.576;2022-10-16T01:18:18;14.60;99.90
45207;DHT22;30950;53.086;21.576;2022-10-16T01:23:43;14.50;99.90
45207;DHT22;30950;53.086;21.576;2022-10-16T01:26:20;14.50;99.90
45207;DHT22;30950;53.086;21.576;2022-10-16T01:28:54;14.50;99.90
45207;DHT22;30950;53.086;21.576;2022-10-16T01:31:27;14.50;99.90
45207;DHT22;30950;53.086;21.576;2022-10-16T01:34:03;14.50;99.90
45207;DHT22;30950;53.086;21.576;2022-10-16T01:36:47;14.50;99.90
45207;DHT22;30950;53.086;21.576;2022-10-16T01:39:20;14.50;99.90
45207;DHT22;30950;53.086;21.576;2022-10-16T01:41:54;14.50;99.90
45207;DHT22;30950;53.086;21.576;2022-10-16T01:44:26;14.50;99.90
45207;DHT22;30950;53.086;21.576;2022-10-16T01:46:55;14.50;99.90
45207;DHT22;30950;53.086;21.576;2022-10-16T01:49:27;14.40;99.90
45207;DHT22;30950;53.086;21.576;2022-10-16T01:51:59;14.40;99.90
45207;DHT22;30950;53.086;21.576;2022-10-16T01:54:34;14.50;99.90
45207;DHT22;30950;53.086;21.576;2022-10-16T01:57:04;14.40;99.90
45207;DHT22;30950;53.086;21.576;2022-10-16T01:59:39;14.40;99.90
45207;DHT22;30950;53.086;21.576;2022-10-16T02:02:09;14.40;99.90
45207;DHT22;30950;53.086;21.576;2022-10-16T02:04:46;14.40;99.90
45207;DHT22;30950;53.086;21.576;2022-10-16T02:07:14;14.40;99.90
45207;DHT22;30950;53.086;21.576;2022-10-16T02:09:43;14.40;99.90
45207;DHT22;30950;53.086;21.576;2022-10-16T02:12:24;14.40;99.90
45207;DHT22;30950;53.086;21.576;2022-10-16T02:14:52;14.40;99.90
45207;DHT22;30950;53.086;21.576;2022-10-16T02:17:21;14.30;99.90
45207;DHT22;30950;53.086;21.576;2022-10-16T02:19:50;14.30;99.90
45207;DHT22;30950;53.086;21.576;2022-10-16T02:22:30;14.30;99.90
45207;DHT22;30950;53.086;21.576;2022-10-16T02:28:03;14.30;99.90
45207;DHT22;30950;53.086;21.576;2022-10-16T02:30:33;14.30;99.90
45207;DHT22;30950;53.086;21.576;2022-10-16T02:33:05;14.30;99.90
45207;DHT22;30950;53.086;21.576;2022-10-16T02:35:34;14.30;99.90
45207;DHT22;30950;53.086;21.576;2022-10-16T02:38:02;14.30;99.90
45207;DHT22;30950;53.086;21.576;2022-10-16T02:40:30;14.30;99.90
45207;DHT22;30950;53.086;21.576;2022-10-16T02:42:58;14.30;99.90
45207;DHT22;30950;53.086;21.576;2022-10-16T02:45:25;14.30;99.90
45207;DHT22;30950;53.086;21.576;2022-10-16T02:47:53;14.30;99.90
45207;DHT22;30950;53.086;21.576;2022-10-16T02:50:21;14.20;99.90
45207;DHT22;30950;53.086;21.576;2022-10-16T02:52:49;14.20;99.90
45207;DHT22;30950;53.086;21.576;2022-10-16T02:55:17;14.20;99.90
45207;DHT22;30950;53.086;21.576;2022-10-16T02:57:44;14.20;99.90
45207;DHT22;30950;53.086;21.576;2022-10-16T03:00:14;14.20;99.90
45207;DHT22;30950;53.086;21.576;2022-10-16T03:02:42;14.20;99.90
45207;DHT22;30950;53.086;21.576;2022-10-16T03:05:10;14.20;99.90
45207;DHT22;30950;53.086;21.576;2022-10-16T03:07:38;14.20;99.90
45207;DHT22;30950;53.086;21.576;2022-10-16T03:10:06;14.20;99.90
45207;DHT22;30950;53.086;21.576;2022-10-16T03:12:33;14.20;99.90
45207;DHT22;30950;53.086;21.576;2022-10-16T03:15:01;14.10;99.90
45207;DHT22;30950;53.086;21.576;2022-10-16T03:17:28;14.10;99.90
45207;DHT22;30950;53.086;21.576;2022-10-16T03:19:56;14.10;99.90
45207;DHT22;30950;53.086;21.576;2022-10-16T03:22:23;14.10;99.90
45207;DHT22;30950;53.086;21.576;2022-10-16T03:24:50;14.10;99.90
45207;DHT22;30950;53.086;21.576;2022-10-16T03:27:18;14.10;99.90
45207;DHT22;30950;53.086;21.576;2022-10-16T03:29:46;14.10;99.90
45207;DHT22;30950;53.086;21.576;2022-10-16T03:32:13;14.10;99.90
45207;DHT22;30950;53.086;21.576;2022-10-16T03:34:41;14.10;99.90
45207;DHT22;30950;53.086;21.576;2022-10-16T03:37:08;14.00;99.90
45207;DHT22;30950;53.086;21.576;2022-10-16T03:39:36;14.10;99.90
45207;DHT22;30950;53.086;21.576;2022-10-16T03:42:03;14.10;99.90
45207;DHT22;30950;53.086;21.576;2022-10-16T03:44:31;14.10;99.90
45207;DHT22;30950;53.086;21.576;2022-10-16T03:46:58;14.10;99.90
45207;DHT22;30950;53.086;21.576;2022-10-16T03:49:26;14.00;99.90
45207;DHT22;30950;53.086;21.576;2022-10-16T03:51:53;14.10;99.90
45207;DHT22;30950;53.086;21.576;2022-10-16T03:54:20;14.10;99.90
45207;DHT22;30950;53.086;21.576;2022-10-16T03:56:49;14.10;99.90
45207;DHT22;30950;53.086;21.576;2022-10-16T03:59:16;14.10;99.90
45207;DHT22;30950;53.086;21.576;2022-10-16T04:01:44;14.10;99.90
45207;DHT22;30950;53.086;21.576;2022-10-16T04:04:11;14.10;99.90
45207;DHT22;30950;53.086;21.576;2022-10-16T04:06:39;14.10;99.90
45207;DHT22;30950;53.086;21.576;2022-10-16T04:09:06;14.10;99.90
45207;DHT22;30950;53.086;21.576;2022-10-16T04:11:33;14.10;99.90
45207;DHT22;30950;53.086;21.576;2022-10-16T04:14:01;14.10;99.90
45207;DHT22;30950;53.086;21.576;2022-10-16T04:16:29;14.10;99.90
45207;DHT22;30950;53.086;21.576;2022-10-16T04:18:56;14.00;99.90
45207;DHT22;30950;53.086;21.576;2022-10-16T04:21:23;14.00;99.90
45207;DHT22;30950;53.086;21.576;2022-10-16T04:23:51;13.90;99.90
45207;DHT22;30950;53.086;21.576;2022-10-16T04:26:18;13.90;99.90
45207;DHT22;30950;53.086;21.576;2022-10-16T04:28:45;13.80;99.90
45207;DHT22;30950;53.086;21.576;2022-10-16T04:31:13;13.80;99.90
45207;DHT22;30950;53.086;21.576;2022-10-16T04:33:44;13.80;99.90
45207;DHT22;30950;53.086;21.576;2022-10-16T04:36:12;13.80;99.90
45207;DHT22;30950;53.086;21.576;2022-10-16T04:38:39;13.80;99.90
45207;DHT22;30950;53.086;21.576;2022-10-16T04:41:07;13.80;99.90
45207;DHT22;30950;53.086;21.576;2022-10-16T04:43:35;13.80;99.90
45207;DHT22;30950;53.086;21.576;2022-10-16T04:46:02;13.80;99.90
45207;DHT22;30950;53.086;21.576;2022-10-16T04:48:31;13.80;99.90
45207;DHT22;30950;53.086;21.576;2022-10-16T04:50:59;13.80;99.90
45207;DHT22;30950;53.086;21.576;2022-10-16T04:53:26;13.80;99.90
45207;DHT22;30950;53.086;21.576;2022-10-16T04:55:54;13.80;99.90
45207;DHT22;30950;53.086;21.576;2022-10-16T04:58:22;13.80;99.90
45207;DHT22;30950;53.086;21.576;2022-10-16T05:00:50;13.80;99.90
45207;DHT22;30950;53.086;21.576;2022-10-16T05:03:17;13.70;99.90
45207;DHT22;30950;53.086;21.576;2022-10-16T05:05:46;13.70;99.90
45207;DHT22;30950;53.086;21.576;2022-10-16T05:08:15;13.80;99.90
45207;DHT22;30950;53.086;21.576;2022-10-16T05:10:44;13.80;99.90
45207;DHT22;30950;53.086;21.576;2022-10-16T05:13:11;13.80;99.90
45207;DHT22;30950;53.086;21.576;2022-10-16T05:15:39;13.80;99.90
45207;DHT22;30950;53.086;21.576;2022-10-16T05:18:07;13.80;99.90
45207;DHT22;30950;53.086;21.576;2022-10-16T05:20:35;13.80;99.90
45207;DHT22;30950;53.086;21.576;2022-10-16T05:23:03;13.80;99.90
45207;DHT22;30950;53.086;21.576;2022-10-16T05:25:30;13.80;99.90
45207;DHT22;30950;53.086;21.576;2022-10-16T05:27:58;13.80;99.90
45207;DHT22;30950;53.086;21.576;2022-10-16T05:30:26;13.80;99.90
45207;DHT22;30950;53.086;21.576;2022-10-16T05:32:53;13.80;99.90
45207;DHT22;30950;53.086;21.576;2022-10-16T05:35:21;13.80;99.90
45207;DHT22;30950;53.086;21.576;2022-10-16T05:37:48;13.80;99.90
45207;DHT22;30950;53.086;21.576;2022-10-16T05:40:16;13.80;99.90
45207;DHT22;30950;53.086;21.576;2022-10-16T05:42:44;13.80;99.90
45207;DHT22;30950;53.086;21.576;2022-10-16T05:45:11;13.80;99.90
45207;DHT22;30950;53.086;21.576;2022-10-16T05:47:39;13.70;99.90
45207;DHT22;30950;53.086;21.576;2022-10-16T05:50:07;13.70;99.90
45207;DHT22;30950;53.086;21.576;2022-10-16T05:52:34;13.70;99.90
45207;DHT22;30950;53.086;21.576;2022-10-16T05:55:04;13.70;99.90
45207;DHT22;30950;53.086;21.576;2022-10-16T05:57:31;13.70;99.90
45207;DHT22;30950;53.086;21.576;2022-10-16T05:59:59;13.60;99.90
45207;DHT22;30950;53.086;21.576;2022-10-16T06:02:27;13.60;99.90
45207;DHT22;30950;53.086;21.576;2022-10-16T06:04:54;13.60;99.90
45207;DHT22;30950;53.086;21.576;2022-10-16T06:07:22;13.60;99.90
45207;DHT22;30950;53.086;21.576;2022-10-16T06:09:53;13.60;99.90
45207;DHT22;30950;53.086;21.576;2022-10-16T06:12:20;13.60;99.90
45207;DHT22;30950;53.086;21.576;2022-10-16T06:14:48;13.70;99.90
45207;DHT22;30950;53.086;21.576;2022-10-16T06:17:15;13.70;99.90
45207;DHT22;30950;53.086;21.576;2022-10-16T06:19:43;13.70;99.90
45207;DHT22;30950;53.086;21.576;2022-10-16T06:22:10;13.80;99.90
45207;DHT22;30950;53.086;21.576;2022-10-16T06:24:38;13.80;99.90
45207;DHT22;30950;53.086;21.576;2022-10-16T06:27:06;13.80;99.90
45207;DHT22;30950;53.086;21.576;2022-10-16T06:29:33;13.80;99.90
45207;DHT22;30950;53.086;21.576;2022-10-16T06:32:02;13.90;99.90
45207;DHT22;30950;53.086;21.576;2022-10-16T06:34:29;13.90;99.90
45207;DHT22;30950;53.086;21.576;2022-10-16T06:36:56;13.90;99.90
45207;DHT22;30950;53.086;21.576;2022-10-16T06:39:24;14.00;99.90
45207;DHT22;30950;53.086;21.576;2022-10-16T06:41:51;14.00;99.90
45207;DHT22;30950;53.086;21.576;2022-10-16T06:44:20;14.00;99.90
45207;DHT22;30950;53.086;21.576;2022-10-16T06:46:47;14.10;99.90
45207;DHT22;30950;53.086;21.576;2022-10-16T06:49:14;14.10;99.90
45207;DHT22;30950;53.086;21.576;2022-10-16T06:51:48;14.10;99.90
45207;DHT22;30950;53.086;21.576;2022-10-16T06:54:16;14.20;99.90
45207;DHT22;30950;53.086;21.576;2022-10-16T06:56:44;14.20;99.90
45207;DHT22;30950;53.086;21.576;2022-10-16T06:59:12;14.30;99.90
45207;DHT22;30950;53.086;21.576;2022-10-16T07:01:39;14.40;99.90
45207;DHT22;30950;53.086;21.576;2022-10-16T07:04:07;14.40;99.90
45207;DHT22;30950;53.086;21.576;2022-10-16T07:06:34;14.50;99.90
45207;DHT22;30950;53.086;21.576;2022-10-16T07:09:04;14.60;99.90
45207;DHT22;30950;53.086;21.576;2022-10-16T07:11:33;14.60;99.90
45207;DHT22;30950;53.086;21.576;2022-10-16T07:14:01;14.70;99.90
45207;DHT22;30950;53.086;21.576;2022-10-16T07:16:31;14.80;99.90
45207;DHT22;30950;53.086;21.576;2022-10-16T07:19:02;15.00;99.90
45207;DHT22;30950;53.086;21.576;2022-10-16T07:21:31;15.00;99.90
45207;DHT22;30950;53.086;21.576;2022-10-16T07:24:10;15.20;99.90
45207;DHT22;30950;53.086;21.576;2022-10-16T07:26:38;15.20;99.90
45207;DHT22;30950;53.086;21.576;2022-10-16T07:29:18;15.40;99.90
45207;DHT22;30950;53.086;21.576;2022-10-16T07:31:47;15.40;99.90
45207;DHT22;30950;53.086;21.576;2022-10-16T07:34:16;15.40;99.90
45207;DHT22;30950;53.086;21.576;2022-10-16T07:36:46;15.50;99.90
45207;DHT22;30950;53.086;21.576;2022-10-16T07:39:14;15.50;99.90
45207;DHT22;30950;53.086;21.576;2022-10-16T07:41:41;15.50;99.90
45207;DHT22;30950;53.086;21.576;2022-10-16T07:44:09;15.60;99.90
45207;DHT22;30950;53.086;21.576;2022-10-16T07:46:36;15.70;99.90
45207;DHT22;30950;53.086;21.576;2022-10-16T07:49:04;15.80;99.90
45207;DHT22;30950;53.086;21.576;2022-10-16T07:51:32;15.90;99.90
45207;DHT22;30950;53.086;21.576;2022-10-16T07:53:59;15.90;99.90
45207;DHT22;30950;53.086;21.576;2022-10-16T07:56:27;16.00;99.90
45207;DHT22;30950;53.086;21.576;2022-10-16T07:58:55;16.10;99.90
45207;DHT22;30950;53.086;21.576;2022-10-16T08:01:23;16.20;99.90
45207;DHT22;30950;53.086;21.576;2022-10-16T08:03:52;16.20;99.90
45207;DHT22;30950;53.086;21.576;2022-10-16T08:06:21;16.30;99.90
45207;DHT22;30950;53.086;21.576;2022-10-16T08:08:55;16.50;99.90
45207;DHT22;30950;53.086;21.576;2022-10-16T08:11:23;16.60;99.90
45207;DHT22;30950;53.086;21.576;2022-10-16T08:13:51;16.70;99.90
45207;DHT22;30950;53.086;21.576;2022-10-16T08:16:18;16.70;99.90
45207;DHT22;30950;53.086;21.576;2022-10-16T08:18:46;16.80;99.90
45207;DHT22;30950;53.086;21.576;2022-10-16T08:21:15;16.90;99.90
45207;DHT22;30950;53.086;21.576;2022-10-16T08:23:48;17.00;99.90
45207;DHT22;30950;53.086;21.576;2022-10-16T08:26:25;17.10;99.90
45207;DHT22;30950;53.086;21.576;2022-10-16T08:28:54;17.20;99.90
45207;DHT22;30950;53.086;21.576;2022-10-16T08:31:21;17.30;99.90
45207;DHT22;30950;53.086;21.576;2022-10-16T08:33:49;17.30;99.90
45207;DHT22;30950;53.086;21.576;2022-10-16T08:36:17;17.30;99.90
45207;DHT22;30950;53.086;21.576;2022-10-16T08:38:47;17.30;99.90
45207;DHT22;30950;53.086;21.576;2022-10-16T08:47:06;17.40;99.90
45207;DHT22;30950;53.086;21.576;2022-10-16T08:49:35;17.50;99.90
45207;DHT22;30950;53.086;21.576;2022-10-16T08:52:04;17.50;99.90
45207;DHT22;30950;53.086;21.576;2022-10-16T08:54:36;17.70;99.90
45207;DHT22;30950;53.086;21.576;2022-10-16T08:57:20;17.70;99.90
45207;DHT22;30950;53.086;21.576;2022-10-16T08:59:51;17.70;99.90
45207;DHT22;30950;53.086;21.576;2022-10-16T09:02:32;17.80;99.90
45207;DHT22;30950;53.086;21.576;2022-10-16T09:10:49;18.10;99.90
45207;DHT22;30950;53.086;21.576;2022-10-16T09:13:26;18.10;99.90
45207;DHT22;30950;53.086;21.576;2022-10-16T09:21:24;18.30;99.90
45207;DHT22;30950;53.086;21.576;2022-10-16T09:23:54;18.40;99.90
45207;DHT22;30950;53.086;21.576;2022-10-16T09:26:24;18.40;99.90
45207;DHT22;30950;53.086;21.576;2022-10-16T09:28:52;18.40;99.90
45207;DHT22;30950;53.086;21.576;2022-10-16T09:31:22;18.30;99.90
45207;DHT22;30950;53.086;21.576;2022-10-16T09:34:00;18.20;99.90
45207;DHT22;30950;53.086;21.576;2022-10-16T09:36:41;18.20;99.90
45207;DHT22;30950;53.086;21.576;2022-10-16T09:39:10;18.30;99.90
45207;DHT22;30950;53.086;21.576;2022-10-16T09:41:43;18.30;99.90
45207;DHT22;30950;53.086;21.576;2022-10-16T09:44:38;18.30;99.90
45207;DHT22;30950;53.086;21.576;2022-10-16T09:47:23;18.40;99.90
45207;DHT22;30950;53.086;21.576;2022-10-16T09:49:56;18.40;99.90
45207;DHT22;30950;53.086;21.576;2022-10-16T09:52:25;18.40;99.90
45207;DHT22;30950;53.086;21.576;2022-10-16T09:54:54;18.50;99.90
45207;DHT22;30950;53.086;21.576;2022-10-16T09:57:23;18.60;99.90
45207;DHT22;30950;53.086;21.576;2022-10-16T09:59:53;18.60;99.90
45207;DHT22;30950;53.086;21.576;2022-10-16T10:02:34;18.70;99.90
45207;DHT22;30950;53.086;21.576;2022-10-16T10:05:04;18.80;99.90
45207;DHT22;30950;53.086;21.576;2022-10-16T10:07:39;18.80;99.90
45207;DHT22;30950;53.086;21.576;2022-10-16T10:10:41;18.90;99.90
45207;DHT22;30950;53.086;21.576;2022-10-16T10:13:20;18.90;99.90
45207;DHT22;30950;53.086;21.576;2022-10-16T10:15:48;19.00;99.90
45207;DHT22;30950;53.086;21.576;2022-10-16T10:18:21;19.00;99.90
45207;DHT22;30950;53.086;21.576;2022-10-16T10:21:00;19.00;99.90
45207;DHT22;30950;53.086;21.576;2022-10-16T10:23:29;19.20;99.90
45207;DHT22;30950;53.086;21.576;2022-10-16T10:26:16;19.30;99.90
45207;DHT22;30950;53.086;21.576;2022-10-16T10:31:31;19.40;99.90
45207;DHT22;30950;53.086;21.576;2022-10-16T10:37:43;19.50;99.90
45207;DHT22;30950;53.086;21.576;2022-10-16T10:43:06;19.50;99.90
45207;DHT22;30950;53.086;21.576;2022-10-16T10:45:42;19.50;99.90
45207;DHT22;30950;53.086;21.576;2022-10-16T10:51:07;19.50;99.90
45207;DHT22;30950;53.086;21.576;2022-10-16T10:53:55;19.50;99.90
45207;DHT22;30950;53.086;21.576;2022-10-16T10:56:42;19.40;99.90
45207;DHT22;30950;53.086;21.576;2022-10-16T11:02:41;19.10;99.90
45207;DHT22;30950;53.086;21.576;2022-10-16T11:08:10;18.80;99.90
45207;DHT22;30950;53.086;21.576;2022-10-16T11:11:16;18.90;99.90
45207;DHT22;30950;53.086;21.576;2022-10-16T11:14:00;18.80;99.90
45207;DHT22;30950;53.086;21.576;2022-10-16T11:19:54;18.90;99.90
45207;DHT22;30950;53.086;21.576;2022-10-16T11:25:18;18.90;99.90
45207;DHT22;30950;53.086;21.576;2022-10-16T11:30:26;18.90;99.90
45207;DHT22;30950;53.086;21.576;2022-10-16T11:41:36;18.80;99.90
45207;DHT22;30950;53.086;21.576;2022-10-16T11:50:37;18.90;99.90
45207;DHT22;30950;53.086;21.576;2022-10-16T11:55:42;19.00;99.90
45207;DHT22;30950;53.086;21.576;2022-10-16T12:03:45;19.00;99.90
45207;DHT22;30950;53.086;21.576;2022-10-16T12:09:04;18.90;99.90
45207;DHT22;30950;53.086;21.576;2022-10-16T12:11:35;18.90;99.90
45207;DHT22;30950;53.086;21.576;2022-10-16T12:19:27;18.90;99.90
45207;DHT22;30950;53.086;21.576;2022-10-16T12:21:57;18.90;99.90
45207;DHT22;30950;53.086;21.576;2022-10-16T12:24:41;18.90;99.90
45207;DHT22;30950;53.086;21.576;2022-10-16T12:27:31;19.00;99.90
45207;DHT22;30950;53.086;21.576;2022-10-16T12:30:04;19.00;99.90
45207;DHT22;30950;53.086;21.576;2022-10-16T12:32:37;19.00;99.90
45207;DHT22;30950;53.086;21.576;2022-10-16T12:35:20;19.10;99.90
45207;DHT22;30950;53.086;21.576;2022-10-16T12:37:48;19.30;99.90
45207;DHT22;30950;53.086;21.576;2022-10-16T12:40:26;19.40;99.90
45207;DHT22;30950;53.086;21.576;2022-10-16T12:42:54;19.50;99.90
45207;DHT22;30950;53.086;21.576;2022-10-16T12:45:33;19.50;99.90
45207;DHT22;30950;53.086;21.576;2022-10-16T12:48:02;19.60;99.90
45207;DHT22;30950;53.086;21.576;2022-10-16T12:50:37;19.60;99.90
45207;DHT22;30950;53.086;21.576;2022-10-16T12:53:19;19.50;99.90
45207;DHT22;30950;53.086;21.576;2022-10-16T12:56:04;19.40;99.90
45207;DHT22;30950;53.086;21.576;2022-10-16T12:58:38;19.50;99.90
45207;DHT22;30950;53.086;21.576;2022-10-16T13:09:35;19.60;99.90
45207;DHT22;30950;53.086;21.576;2022-10-16T13:15:52;19.80;99.90
45207;DHT22;30950;53.086;21.576;2022-10-16T13:18:30;19.80;99.90
45207;DHT22;30950;53.086;21.576;2022-10-16T13:21:12;19.70;99.90
45207;DHT22;30950;53.086;21.576;2022-10-16T13:27:05;19.70;99.90
45207;DHT22;30950;53.086;21.576;2022-10-16T13:29:34;19.60;99.90
45207;DHT22;30950;53.086;21.576;2022-10-16T13:32:07;19.50;99.90
45207;DHT22;30950;53.086;21.576;2022-10-16T13:34:44;19.50;99.90
45207;DHT22;30950;53.086;21.576;2022-10-16T13:37:24;19.40;99.90
45207;DHT22;30950;53.086;21.576;2022-10-16T13:40:12;19.30;99.90
45207;DHT22;30950;53.086;21.576;2022-10-16T13:42:45;19.30;99.90
45207;DHT22;30950;53.086;21.576;2022-10-16T13:45:20;19.30;99.90
45207;DHT22;30950;53.086;21.576;2022-10-16T13:47:48;19.30;99.90
45207;DHT22;30950;53.086;21.576;2022-10-16T13:50:18;19.30;99.90
45207;DHT22;30950;53.086;21.576;2022-10-16T13:52:45;19.30;99.90
45207;DHT22;30950;53.086;21.576;2022-10-16T13:55:17;19.30;99.90
45207;DHT22;30950;53.086;21.576;2022-10-16T13:57:45;19.30;99.90
45207;DHT22;30950;53.086;21.576;2022-10-16T14:00:29;19.20;99.90
45207;DHT22;30950;53.086;21.576;2022-10-16T14:03:05;19.20;99.90
45207;DHT22;30950;53.086;21.576;2022-10-16T14:05:34;19.10;99.90
45207;DHT22;30950;53.086;21.576;2022-10-16T14:08:09;19.10;99.90
45207;DHT22;30950;53.086;21.576;2022-10-16T14:10:40;19.20;99.90
45207;DHT22;30950;53.086;21.576;2022-10-16T14:13:12;19.10;99.90
45207;DHT22;30950;53.086;21.576;2022-10-16T14:15:46;19.10;99.90
45207;DHT22;30950;53.086;21.576;2022-10-16T14:18:20;19.10;99.90
45207;DHT22;30950;53.086;21.576;2022-10-16T14:20:49;19.00;99.90
45207;DHT22;30950;53.086;21.576;2022-10-16T14:23:23;19.00;99.90
45207;DHT22;30950;53.086;21.576;2022-10-16T14:25:51;19.00;99.90
45207;DHT22;30950;53.086;21.576;2022-10-16T14:28:21;19.00;99.90
45207;DHT22;30950;53.086;21.576;2022-10-16T14:31:00;19.00;99.90
45207;DHT22;30950;53.086;21.576;2022-10-16T14:36:18;18.90;99.90
45207;DHT22;30950;53.086;21.576;2022-10-16T14:41:21;18.90;99.90
45207;DHT22;30950;53.086;21.576;2022-10-16T14:43:55;18.90;99.90
45207;DHT22;30950;53.086;21.576;2022-10-16T14:46:33;18.90;99.90
45207;DHT22;30950;53.086;21.576;2022-10-16T14:51:39;18.90;99.90
45207;DHT22;30950;53.086;21.576;2022-10-16T14:54:13;18.90;99.90
45207;DHT22;30950;53.086;21.576;2022-10-16T14:56:53;18.90;99.90
45207;DHT22;30950;53.086;21.576;2022-10-16T14:59:28;18.90;99.90
45207;DHT22;30950;53.086;21.576;2022-10-16T15:01:57;18.80;99.90
45207;DHT22;30950;53.086;21.576;2022-10-16T15:04:24;18.80;99.90
45207;DHT22;30950;53.086;21.576;2022-10-16T15:06:52;18.80;99.90
45207;DHT22;30950;53.086;21.576;2022-10-16T15:09:20;18.80;99.90
45207;DHT22;30950;53.086;21.576;2022-10-16T15:11:48;18.80;99.90
45207;DHT22;30950;53.086;21.576;2022-10-16T15:14:16;18.70;99.90
45207;DHT22;30950;53.086;21.576;2022-10-16T15:16:44;18.70;99.90
45207;DHT22;30950;53.086;21.576;2022-10-16T15:19:12;18.70;99.90
45207;DHT22;30950;53.086;21.576;2022-10-16T15:21:40;18.70;99.90
45207;DHT22;30950;53.086;21.576;2022-10-16T15:24:14;18.60;99.90
45207;DHT22;30950;53.086;21.576;2022-10-16T15:26:47;18.60;99.90
45207;DHT22;30950;53.086;21.576;2022-10-16T15:29:16;18.60;99.90
45207;DHT22;30950;53.086;21.576;2022-10-16T15:31:44;18.60;99.90
45207;DHT22;30950;53.086;21.576;2022-10-16T15:34:14;18.60;99.90
45207;DHT22;30950;53.086;21.576;2022-10-16T15:36:42;18.50;99.90
45207;DHT22;30950;53.086;21.576;2022-10-16T15:39:21;18.50;99.90
45207;DHT22;30950;53.086;21.576;2022-10-16T15:41:49;18.50;99.90
45207;DHT22;30950;53.086;21.576;2022-10-16T15:44:19;18.40;99.90
45207;DHT22;30950;53.086;21.576;2022-10-16T15:46:47;18.40;99.90
45207;DHT22;30950;53.086;21.576;2022-10-16T15:49:16;18.40;99.90
45207;DHT22;30950;53.086;21.576;2022-10-16T15:51:45;18.40;99.90
45207;DHT22;30950;53.086;21.576;2022-10-16T15:54:13;18.40;99.90
45207;DHT22;30950;53.086;21.576;2022-10-16T15:56:40;18.30;99.90
45207;DHT22;30950;53.086;21.576;2022-10-16T15:59:08;18.40;99.90
45207;DHT22;30950;53.086;21.576;2022-10-16T16:01:36;18.30;99.90
45207;DHT22;30950;53.086;21.576;2022-10-16T16:04:04;18.30;99.90
45207;DHT22;30950;53.086;21.576;2022-10-16T16:06:46;18.30;99.90
45207;DHT22;30950;53.086;21.576;2022-10-16T16:09:15;18.20;99.90
45207;DHT22;30950;53.086;21.576;2022-10-16T16:11:43;18.20;99.90
45207;DHT22;30950;53.086;21.576;2022-10-16T16:14:12;18.10;99.90
45207;DHT22;30950;53.086;21.576;2022-10-16T16:16:44;18.10;99.90
45207;DHT22;30950;53.086;21.576;2022-10-16T16:19:12;18.10;99.90
45207;DHT22;30950;53.086;21.576;2022-10-16T16:21:40;18.00;99.90
45207;DHT22;30950;53.086;21.576;2022-10-16T16:24:07;18.00;99.90
45207;DHT22;30950;53.086;21.576;2022-10-16T16:26:36;18.00;99.90
45207;DHT22;30950;53.086;21.576;2022-10-16T16:29:12;18.00;99.90
45207;DHT22;30950;53.086;21.576;2022-10-16T16:31:41;18.00;99.90
45207;DHT22;30950;53.086;21.576;2022-10-16T16:34:15;17.90;99.90
45207;DHT22;30950;53.086;21.576;2022-10-16T16:36:42;18.00;99.90
45207;DHT22;30950;53.086;21.576;2022-10-16T16:39:11;17.90;99.90
45207;DHT22;30950;53.086;21.576;2022-10-16T16:41:39;17.90;99.90
45207;DHT22;30950;53.086;21.576;2022-10-16T16:44:10;17.90;99.90
45207;DHT22;30950;53.086;21.576;2022-10-16T16:46:38;17.90;99.90
45207;DHT22;30950;53.086;21.576;2022-10-16T16:49:08;17.90;99.90
45207;DHT22;30950;53.086;21.576;2022-10-16T16:51:37;17.90;99.90
45207;DHT22;30950;53.086;21.576;2022-10-16T16:54:07;17.80;99.90
45207;DHT22;30950;53.086;21.576;2022-10-16T16:56:35;17.80;99.90
45207;DHT22;30950;53.086;21.576;2022-10-16T16:59:03;17.80;99.90
45207;DHT22;30950;53.086;21.576;2022-10-16T17:01:31;17.70;99.90
45207;DHT22;30950;53.086;21.576;2022-10-16T17:03:58;17.70;99.90
45207;DHT22;30950;53.086;21.576;2022-10-16T17:06:28;17.70;99.90
45207;DHT22;30950;53.086;21.576;2022-10-16T17:09:00;17.70;99.90
45207;DHT22;30950;53.086;21.576;2022-10-16T17:11:30;17.70;99.90
45207;DHT22;30950;53.086;21.576;2022-10-16T17:13:59;17.70;99.90
45207;DHT22;30950;53.086;21.576;2022-10-16T17:16:30;17.70;99.90
45207;DHT22;30950;53.086;21.576;2022-10-16T17:19:00;17.70;99.90
45207;DHT22;30950;53.086;21.576;2022-10-16T17:21:28;17.60;99.90
45207;DHT22;30950;53.086;21.576;2022-10-16T17:23:58;17.60;99.90
45207;DHT22;30950;53.086;21.576;2022-10-16T17:26:26;17.60;99.90